Time;durP1;ratioP1;P1;durP2;ratioP2;P2;SDS_P1;SDS_P2;PMS_P1;PMS_P2;Temp;Humidity;BMP_temperature;BMP_pressure;BME280_temperature;BME280_humidity;BME280_pressure;Samples;Min_cycle;Max_cycle;Signal;HPM_P1;HPM_P2
2023/01/12 00:03:18;;;;;;;14.27;6.35;;;;;;;;;;10382956;28;20025;-54
2023/01/12 00:08:19;;;;;;;13.98;6.07;;;;;;;;;;10390327;28;20026;-53
2023/01/12 00:13:20;;;;;;;13.00;6.03;;;;;;;;;;10391965;28;20045;-58
2023/01/12 00:18:20;;;;;;;15.27;6.05;;;;;;;;;;10391792;28;20018;-55
2023/01/12 00:23:22;;;;;;;12.25;6.13;;;;;;;;;;10391965;28;20029;-55
2023/01/12 00:28:23;;;;;;;10.48;5.75;;;;;;;;;;10397086;28;20026;-53
2023/01/12 00:33:23;;;;;;;15.30;5.97;;;;;;;;;;10383984;28;20030;-58
2023/01/12 00:38:24;;;;;;;11.50;5.35;;;;;;;;;;10389792;28;20180;-54
2023/01/12 00:48:44;;;;;;;13.88;6.18;;;;;;;;;;10392698;28;20109;-53
2023/01/12 00:53:45;;;;;;;11.00;5.82;;;;;;;;;;10370029;28;20050;-57
2023/01/12 00:58:46;;;;;;;12.60;5.85;;;;;;;;;;10397445;28;20029;-54
2023/01/12 01:03:46;;;;;;;10.13;5.75;;;;;;;;;;10400330;28;20025;-56
2023/01/12 01:08:47;;;;;;;8.93;5.25;;;;;;;;;;10406992;28;20404;-52
2023/01/12 01:13:48;;;;;;;11.27;5.32;;;;;;;;;;10407056;28;20460;-58
2023/01/12 01:18:48;;;;;;;7.00;5.05;;;;;;;;;;10394572;28;20041;-50
2023/01/12 01:23:49;;;;;;;11.15;4.95;;;;;;;;;;10401617;28;20461;-52
2023/01/12 01:28:50;;;;;;;10.55;4.90;;;;;;;;;;10399485;28;20483;-53
2023/01/12 01:33:51;;;;;;;12.00;5.18;;;;;;;;;;10387312;28;20025;-46
2023/01/12 01:38:52;;;;;;;9.30;4.70;;;;;;;;;;10392763;28;20030;-51
2023/01/12 01:44:05;;;;;;;11.13;5.32;;;;;;;;;;10405978;28;20489;-51
2023/01/12 01:49:39;;;;;;;9.63;5.25;;;;;;;;;;10396276;28;20149;-45
2023/01/12 01:54:59;;;;;;;10.73;4.78;;;;;;;;;;10393015;28;20049;-47
2023/01/12 02:00:02;;;;;;;9.98;4.57;;;;;;;;;;10384015;28;20046;-45
2023/01/12 02:05:03;;;;;;;7.40;4.25;;;;;;;;;;10402883;28;20033;-46
2023/01/12 02:10:04;;;;;;;7.00;4.43;;;;;;;;;;10396920;28;20469;-59
2023/01/12 02:20:57;;;;;;;6.90;4.68;;;;;;;;;;10408541;28;20026;-48
2023/01/12 02:26:35;;;;;;;6.05;4.28;;;;;;;;;;10397324;28;20041;-49
2023/01/12 02:32:08;;;;;;;8.57;4.60;;;;;;;;;;10385987;28;20030;-46
2023/01/12 02:37:12;;;;;;;7.57;4.45;;;;;;;;;;10386150;28;20040;-46
2023/01/12 02:42:42;;;;;;;7.25;4.32;;;;;;;;;;10380020;28;20084;-46
2023/01/12 02:48:07;;;;;;;6.82;4.35;;;;;;;;;;10403994;28;20064;-46
2023/01/12 02:53:19;;;;;;;6.57;4.47;;;;;;;;;;10406403;28;20145;-46
2023/01/12 02:58:23;;;;;;;5.55;4.20;;;;;;;;;;10395191;28;20025;-48
2023/01/12 03:03:25;;;;;;;6.22;4.25;;;;;;;;;;10403176;28;20014;-46
2023/01/12 03:08:29;;;;;;;7.88;3.83;;;;;;;;;;10393347;28;20415;-55
2023/01/12 03:13:34;;;;;;;6.70;4.32;;;;;;;;;;10395761;28;20038;-51
2023/01/12 03:18:52;;;;;;;6.85;4.25;;;;;;;;;;10401040;28;20389;-54
2023/01/12 03:24:08;;;;;;;5.20;3.70;;;;;;;;;;10396700;28;20140;-55
2023/01/12 03:29:18;;;;;;;7.28;4.45;;;;;;;;;;10384683;28;20104;-48
2023/01/12 03:34:19;;;;;;;9.57;4.30;;;;;;;;;;10391214;28;20041;-46
2023/01/12 03:39:56;;;;;;;6.70;4.35;;;;;;;;;;10399401;28;20029;-51
2023/01/12 03:45:21;;;;;;;6.03;3.63;;;;;;;;;;10393061;28;20025;-46
2023/01/12 03:50:33;;;;;;;5.43;3.67;;;;;;;;;;10396044;28;20358;-46
2023/01/12 03:55:36;;;;;;;6.70;3.97;;;;;;;;;;10392236;28;20037;-45
2023/01/12 04:00:37;;;;;;;4.90;3.65;;;;;;;;;;10400945;28;20028;-46
2023/01/12 04:05:40;;;;;;;7.00;4.15;;;;;;;;;;10394693;28;20502;-45
2023/01/12 04:10:41;;;;;;;9.20;3.47;;;;;;;;;;10400662;28;20033;-46
2023/01/12 04:15:42;;;;;;;5.95;3.63;;;;;;;;;;10403897;28;20029;-49
2023/01/12 04:20:43;;;;;;;7.18;4.32;;;;;;;;;;10382869;28;20026;-47
2023/01/12 04:25:43;;;;;;;4.22;3.03;;;;;;;;;;10386302;28;20048;-54
2023/01/12 04:30:44;;;;;;;5.15;3.63;;;;;;;;;;10390205;28;20021;-56
2023/01/12 04:35:46;;;;;;;6.13;3.60;;;;;;;;;;10400544;28;20044;-50
2023/01/12 04:40:53;;;;;;;5.38;3.60;;;;;;;;;;10410160;28;20396;-50
2023/01/12 04:45:54;;;;;;;5.93;3.55;;;;;;;;;;10411883;28;20036;-51
2023/01/12 04:50:57;;;;;;;4.43;3.25;;;;;;;;;;10410864;28;20045;-53
2023/01/12 04:56:01;;;;;;;8.73;3.47;;;;;;;;;;10413781;28;20041;-51
2023/01/12 05:01:15;;;;;;;5.30;3.55;;;;;;;;;;10393140;28;20025;-54
2023/01/12 05:06:15;;;;;;;5.25;3.60;;;;;;;;;;10382333;28;20032;-53
2023/01/12 05:11:16;;;;;;;3.92;3.40;;;;;;;;;;10395395;28;20032;-53
2023/01/12 05:16:17;;;;;;;5.60;3.40;;;;;;;;;;10396526;28;20098;-57
2023/01/12 05:21:20;;;;;;;3.90;3.20;;;;;;;;;;10403012;28;20519;-51
2023/01/12 05:26:21;;;;;;;6.22;3.30;;;;;;;;;;10397155;28;20458;-46
2023/01/12 05:31:21;;;;;;;4.10;2.92;;;;;;;;;;10383889;28;20018;-50
2023/01/12 05:36:22;;;;;;;3.65;2.67;;;;;;;;;;10397789;28;20030;-46
2023/01/12 05:41:23;;;;;;;5.13;3.50;;;;;;;;;;10383335;28;20021;-48
2023/01/12 05:46:26;;;;;;;3.25;2.95;;;;;;;;;;10396899;28;20027;-47
2023/01/12 05:51:29;;;;;;;4.38;3.22;;;;;;;;;;10401557;28;20069;-57
2023/01/12 05:56:31;;;;;;;3.75;2.75;;;;;;;;;;10408553;28;20072;-58
2023/01/12 06:01:32;;;;;;;4.90;3.05;;;;;;;;;;10394974;28;20096;-58
2023/01/12 06:06:33;;;;;;;4.68;3.05;;;;;;;;;;10402711;28;20052;-58
2023/01/12 06:16:52;;;;;;;4.47;3.28;;;;;;;;;;10404530;28;20029;-58
2023/01/12 06:21:54;;;;;;;4.00;2.83;;;;;;;;;;10387234;28;20025;-46
2023/01/12 06:26:54;;;;;;;6.93;3.10;;;;;;;;;;10404404;28;20025;-49
2023/01/12 06:31:55;;;;;;;3.83;2.92;;;;;;;;;;10399021;28;20034;-48
2023/01/12 06:36:56;;;;;;;3.90;2.97;;;;;;;;;;10399165;28;20040;-50
2023/01/12 06:47:15;;;;;;;3.72;2.55;;;;;;;;;;10400053;28;20026;-57
2023/01/12 06:52:27;;;;;;;4.43;3.05;;;;;;;;;;10400875;28;20481;-57
2023/01/12 06:57:27;;;;;;;7.40;2.97;;;;;;;;;;10387389;28;20314;-59
2023/01/12 07:02:28;;;;;;;13.43;2.78;;;;;;;;;;10397198;28;20280;-49
2023/01/12 07:07:28;;;;;;;13.15;2.83;;;;;;;;;;10395026;28;20177;-47
2023/01/12 07:12:29;;;;;;;6.85;2.80;;;;;;;;;;10396029;28;20029;-56
2023/01/12 07:17:30;;;;;;;9.32;3.22;;;;;;;;;;10405877;28;20044;-55
2023/01/12 07:22:30;;;;;;;10.18;3.58;;;;;;;;;;10389834;28;20036;-62
2023/01/12 07:27:31;;;;;;;9.70;3.60;;;;;;;;;;10401165;28;20036;-61
2023/01/12 07:32:31;;;;;;;10.18;2.85;;;;;;;;;;10389775;28;20033;-60
2023/01/12 07:37:32;;;;;;;9.45;3.08;;;;;;;;;;10377503;28;20109;-60
2023/01/12 07:42:32;;;;;;;6.25;2.80;;;;;;;;;;10390161;28;20096;-59
2023/01/12 07:47:33;;;;;;;6.85;3.20;;;;;;;;;;10387976;28;20029;-59
2023/01/12 07:52:34;;;;;;;14.15;3.22;;;;;;;;;;10401824;28;20413;-60
2023/01/12 07:57:36;;;;;;;16.83;3.88;;;;;;;;;;10384078;28;20437;-62
2023/01/12 08:02:36;;;;;;;9.05;3.50;;;;;;;;;;10376407;28;20030;-61
2023/01/12 08:07:37;;;;;;;7.68;3.63;;;;;;;;;;10380876;28;20516;-59
2023/01/12 08:12:58;;;;;;;5.57;3.25;;;;;;;;;;10381318;28;20037;-65
2023/01/12 08:18:08;;;;;;;4.32;2.88;;;;;;;;;;10393716;28;20145;-52
2023/01/12 08:23:15;;;;;;;9.27;3.47;;;;;;;;;;10382723;28;20045;-61
2023/01/12 08:28:19;;;;;;;8.10;3.47;;;;;;;;;;10393206;28;20396;-50
2023/01/12 08:33:20;;;;;;;6.60;3.50;;;;;;;;;;10387224;28;20029;-48
2023/01/12 08:38:21;;;;;;;9.02;3.20;;;;;;;;;;10376510;28;20034;-52
2023/01/12 08:48:40;;;;;;;12.23;4.35;;;;;;;;;;10380298;28;20025;-61
2023/01/12 08:53:41;;;;;;;6.20;3.40;;;;;;;;;;10390407;28;20049;-48
2023/01/12 08:58:42;;;;;;;5.28;3.28;;;;;;;;;;10377849;28;20022;-58
2023/01/12 09:03:45;;;;;;;6.65;3.33;;;;;;;;;;10387495;28;20041;-62
2023/01/12 09:08:46;;;;;;;17.63;3.70;;;;;;;;;;10383933;28;20404;-63
2023/01/12 09:13:47;;;;;;;7.85;3.28;;;;;;;;;;10385087;28;20042;-53
2023/01/12 09:18:48;;;;;;;5.20;3.55;;;;;;;;;;10403870;28;20478;-49
2023/01/12 09:23:49;;;;;;;6.63;3.38;;;;;;;;;;10403818;28;20103;-50
2023/01/12 09:28:50;;;;;;;6.57;3.90;;;;;;;;;;10402397;28;20037;-46
2023/01/12 09:33:52;;;;;;;7.90;4.03;;;;;;;;;;10396414;28;20542;-49
2023/01/12 09:38:53;;;;;;;7.70;3.90;;;;;;;;;;10396915;28;20543;-47
2023/01/12 09:49:15;;;;;;;7.18;3.85;;;;;;;;;;10401187;28;20438;-50
2023/01/12 09:54:15;;;;;;;6.50;3.35;;;;;;;;;;10415364;28;20124;-48
2023/01/12 09:59:33;;;;;;;8.38;3.53;;;;;;;;;;10396786;28;20049;-49
2023/01/12 10:04:36;;;;;;;6.60;4.07;;;;;;;;;;10405225;28;20091;-60
2023/01/12 10:09:37;;;;;;;5.50;3.80;;;;;;;;;;10399916;28;20029;-61
2023/01/12 10:15:13;;;;;;;6.13;3.88;;;;;;;;;;10400201;28;20041;-58
2023/01/12 10:20:30;;;;;;;7.18;3.72;;;;;;;;;;10424536;28;20485;-55
2023/01/12 10:26:03;;;;;;;13.65;4.45;;;;;;;;;;10400501;28;20479;-54
2023/01/12 10:31:14;;;;;;;8.40;4.05;;;;;;;;;;10406039;28;20032;-57
2023/01/12 10:36:19;;;;;;;9.43;4.28;;;;;;;;;;10406932;28;20168;-55
2023/01/12 10:41:25;;;;;;;8.25;4.25;;;;;;;;;;10381575;28;20535;-54
2023/01/12 10:46:30;;;;;;;6.97;3.95;;;;;;;;;;10407470;28;20021;-56
2023/01/12 10:51:34;;;;;;;5.45;3.67;;;;;;;;;;10384654;28;20052;-61
2023/01/12 10:56:42;;;;;;;7.20;4.25;;;;;;;;;;10400946;28;20121;-59
2023/01/12 11:02:05;;;;;;;9.80;4.63;;;;;;;;;;10393298;28;20036;-56
2023/01/12 11:07:25;;;;;;;6.45;4.05;;;;;;;;;;10396608;28;20044;-56
2023/01/12 11:12:39;;;;;;;6.22;4.25;;;;;;;;;;10390201;28;20047;-61
2023/01/12 11:17:57;;;;;;;6.80;4.57;;;;;;;;;;10406303;28;20031;-61
2023/01/12 11:23:15;;;;;;;6.82;4.45;;;;;;;;;;10410445;28;20049;-55
2023/01/12 11:28:43;;;;;;;6.85;4.40;;;;;;;;;;10397296;28;20404;-62
2023/01/12 11:34:26;;;;;;;6.80;4.40;;;;;;;;;;10384590;28;20033;-62
2023/01/12 11:39:29;;;;;;;8.65;4.35;;;;;;;;;;10353963;28;20513;-57
2023/01/12 11:44:45;;;;;;;5.38;4.00;;;;;;;;;;10339588;28;20042;-60
2023/01/12 11:50:04;;;;;;;6.25;4.13;;;;;;;;;;10340947;28;20488;-61
2023/01/12 11:55:17;;;;;;;8.63;4.75;;;;;;;;;;10336703;28;20405;-58
2023/01/12 12:00:55;;;;;;;6.30;4.10;;;;;;;;;;10343937;28;20065;-59
2023/01/12 12:06:23;;;;;;;5.93;4.00;;;;;;;;;;10342746;28;20409;-53
2023/01/12 12:11:38;;;;;;;5.85;4.00;;;;;;;;;;10365931;28;20179;-54
2023/01/12 12:17:25;;;;;;;6.05;3.90;;;;;;;;;;10380289;28;20037;-57
2023/01/12 12:22:25;;;;;;;6.68;3.88;;;;;;;;;;10375437;28;20045;-53
2023/01/12 12:28:05;;;;;;;7.45;4.00;;;;;;;;;;10392139;28;20092;-60
2023/01/12 12:34:01;;;;;;;7.07;4.28;;;;;;;;;;10395459;28;20430;-51
2023/01/12 12:39:31;;;;;;;4.80;3.78;;;;;;;;;;10382102;28;20033;-47
2023/01/12 12:45:23;;;;;;;7.57;4.03;;;;;;;;;;10375436;28;20049;-50
2023/01/12 12:50:42;;;;;;;6.60;4.28;;;;;;;;;;10391437;28;20053;-52
2023/01/12 12:55:44;;;;;;;7.55;3.95;;;;;;;;;;10402391;28;20509;-54
2023/01/12 13:00:45;;;;;;;4.93;3.40;;;;;;;;;;10390133;28;20079;-53
2023/01/12 13:05:47;;;;;;;7.05;3.70;;;;;;;;;;10387549;28;20489;-53
2023/01/12 13:10:52;;;;;;;6.20;3.78;;;;;;;;;;10388574;28;20627;-58
2023/01/12 13:16:14;;;;;;;5.72;3.65;;;;;;;;;;10381229;28;20112;-52
2023/01/12 13:21:49;;;;;;;4.95;3.60;;;;;;;;;;10379919;28;20481;-51
2023/01/12 13:26:56;;;;;;;7.20;3.90;;;;;;;;;;10377019;28;20033;-46
2023/01/12 13:32:27;;;;;;;5.57;3.88;;;;;;;;;;10384881;28;20026;-53
2023/01/12 13:37:48;;;;;;;6.85;4.03;;;;;;;;;;10391596;28;20033;-53
2023/01/12 13:48:11;;;;;;;6.10;3.65;;;;;;;;;;10390146;28;20037;-55
2023/01/12 13:53:28;;;;;;;5.80;4.00;;;;;;;;;;10391573;28;20038;-49
2023/01/12 13:58:41;;;;;;;6.47;3.60;;;;;;;;;;10383681;28;20037;-51
2023/01/12 14:04:00;;;;;;;6.03;3.95;;;;;;;;;;10381436;28;20124;-53
2023/01/12 14:09:13;;;;;;;;;;;;;;;;;;10401598;28;20033;-50
2023/01/12 14:20:29;;;;;;;11.98;4.20;;;;;;;;;;10407260;28;20037;-56
2023/01/12 14:25:30;;;;;;;27.88;4.18;;;;;;;;;;10402717;28;20033;-60
2023/01/12 14:30:31;;;;;;;24.98;4.50;;;;;;;;;;10396868;28;20030;-47
2023/01/12 14:35:32;;;;;;;23.40;4.00;;;;;;;;;;10409041;28;20033;-46
2023/01/12 14:40:33;;;;;;;22.25;3.95;;;;;;;;;;10393297;28;20360;-50
2023/01/12 14:51:09;;;;;;;21.33;4.38;;;;;;;;;;10390291;28;20046;-58
2023/01/12 14:56:18;;;;;;;23.42;4.13;;;;;;;;;;10391402;28;20397;-57
2023/01/12 15:01:34;;;;;;;12.63;4.05;;;;;;;;;;10382397;28;20087;-52
2023/01/12 15:06:40;;;;;;;7.03;3.92;;;;;;;;;;10393181;28;20099;-53
2023/01/12 15:11:41;;;;;;;10.32;4.00;;;;;;;;;;10400404;28;20381;-49
2023/01/12 15:27:22;;;;;;;7.43;3.70;;;;;;;;;;10396660;28;20549;-57
2023/01/12 15:32:41;;;;;;;8.88;3.75;;;;;;;;;;10397943;28;20025;-57
2023/01/12 15:37:41;;;;;;;9.00;3.67;;;;;;;;;;10400424;28;20045;-56
2023/01/12 15:42:42;;;;;;;6.78;3.90;;;;;;;;;;10392634;28;20069;-57
2023/01/12 15:47:42;;;;;;;4.60;3.45;;;;;;;;;;10391448;28;20540;-54
2023/01/12 15:52:43;;;;;;;8.90;3.75;;;;;;;;;;10389584;28;20053;-55
2023/01/12 15:57:44;;;;;;;12.25;3.78;;;;;;;;;;10399870;28;20555;-52
2023/01/12 16:02:48;;;;;;;3.72;3.15;;;;;;;;;;10389592;28;20054;-56
2023/01/12 16:07:49;;;;;;;7.80;3.42;;;;;;;;;;10380234;28;20489;-55
2023/01/12 16:12:50;;;;;;;13.38;3.35;;;;;;;;;;10383457;28;20108;-58
2023/01/12 16:17:51;;;;;;;9.57;3.60;;;;;;;;;;10381455;28;20041;-57
2023/01/12 16:22:51;;;;;;;6.05;3.20;;;;;;;;;;10376397;28;20030;-53
2023/01/12 16:27:56;;;;;;;6.72;4.05;;;;;;;;;;10383323;28;20025;-57
2023/01/12 16:32:58;;;;;;;8.48;3.67;;;;;;;;;;10397240;28;20053;-56
2023/01/12 16:37:58;;;;;;;5.53;3.80;;;;;;;;;;10383688;28;20292;-57
2023/01/12 16:42:59;;;;;;;7.20;4.47;;;;;;;;;;10381034;28;20272;-57
2023/01/12 16:47:59;;;;;;;7.00;4.10;;;;;;;;;;10372286;28;20444;-53
2023/01/12 16:53:01;;;;;;;7.90;4.07;;;;;;;;;;10383254;28;20041;-49
2023/01/12 16:58:02;;;;;;;6.20;4.15;;;;;;;;;;10376039;28;20269;-50
2023/01/12 17:03:03;;;;;;;8.43;4.47;;;;;;;;;;10374188;28;20519;-51
2023/01/12 17:08:04;;;;;;;7.38;4.28;;;;;;;;;;10379206;28;20038;-57
2023/01/12 17:13:05;;;;;;;7.20;4.30;;;;;;;;;;10391504;28;20021;-58
2023/01/12 17:18:05;;;;;;;8.20;4.13;;;;;;;;;;10388856;28;20029;-57
2023/01/12 17:23:06;;;;;;;6.28;4.43;;;;;;;;;;10374777;28;20211;-54
2023/01/12 17:28:06;;;;;;;7.70;4.07;;;;;;;;;;10380589;28;20022;-57
2023/01/12 17:33:07;;;;;;;7.22;4.40;;;;;;;;;;10372726;28;20128;-54
2023/01/12 17:38:07;;;;;;;6.78;4.63;;;;;;;;;;10373597;28;20033;-54
2023/01/12 17:43:13;;;;;;;7.65;4.38;;;;;;;;;;10385902;28;20017;-58
2023/01/12 17:48:17;;;;;;;9.48;4.85;;;;;;;;;;10394433;28;20034;-58
2023/01/12 17:53:18;;;;;;;10.05;4.60;;;;;;;;;;10401021;28;20504;-57
2023/01/12 17:58:19;;;;;;;7.93;4.50;;;;;;;;;;10384159;28;20044;-55
2023/01/12 18:03:19;;;;;;;8.70;4.53;;;;;;;;;;10402657;28;20534;-57
2023/01/12 18:08:20;;;;;;;11.20;5.65;;;;;;;;;;10392251;28;20044;-57
2023/01/12 18:13:21;;;;;;;6.95;4.93;;;;;;;;;;10395342;28;20029;-58
2023/01/12 18:18:21;;;;;;;12.02;5.40;;;;;;;;;;10396142;28;20405;-59
2023/01/12 18:23:22;;;;;;;7.38;4.50;;;;;;;;;;10383937;28;20036;-53
2023/01/12 18:28:23;;;;;;;13.40;4.82;;;;;;;;;;10375778;28;20042;-57
2023/01/12 18:33:23;;;;;;;7.65;4.57;;;;;;;;;;10385707;28;20029;-55
2023/01/12 18:38:25;;;;;;;8.50;5.53;;;;;;;;;;10385909;28;20037;-58
2023/01/12 18:43:27;;;;;;;7.43;4.93;;;;;;;;;;10382698;28;20068;-56
2023/01/12 18:48:27;;;;;;;7.18;5.30;;;;;;;;;;10380071;28;20029;-57
2023/01/12 18:53:30;;;;;;;10.07;4.82;;;;;;;;;;10382038;28;20127;-48
2023/01/12 18:58:33;;;;;;;16.05;6.30;;;;;;;;;;10390056;28;20113;-50
2023/01/12 19:03:35;;;;;;;15.20;6.53;;;;;;;;;;10387094;28;20044;-53
2023/01/12 19:19:14;;;;;;;21.80;6.97;;;;;;;;;;10392436;28;20037;-55
2023/01/12 19:29:34;;;;;;;20.90;7.43;;;;;;;;;;10386163;28;20030;-55
2023/01/12 19:34:34;;;;;;;18.05;7.00;;;;;;;;;;10377947;28;20400;-56
2023/01/12 19:39:56;;;;;;;17.10;7.70;;;;;;;;;;10381104;28;20025;-56
2023/01/12 19:44:56;;;;;;;23.75;8.23;;;;;;;;;;10378079;28;20021;-58
2023/01/12 19:49:57;;;;;;;15.50;7.40;;;;;;;;;;10379525;28;20465;-47
2023/01/12 19:54:57;;;;;;;14.88;7.30;;;;;;;;;;10382195;28;20041;-57
2023/01/12 19:59:58;;;;;;;15.13;7.75;;;;;;;;;;10388336;28;20042;-55
2023/01/12 20:04:59;;;;;;;14.20;7.40;;;;;;;;;;10409301;28;20056;-55
2023/01/12 20:10:00;;;;;;;15.57;6.85;;;;;;;;;;10388609;28;20130;-58
2023/01/12 20:15:01;;;;;;;18.33;7.25;;;;;;;;;;10376748;28;20029;-54
2023/01/12 20:20:07;;;;;;;17.73;6.35;;;;;;;;;;10375089;28;20030;-54
2023/01/12 20:25:08;;;;;;;14.40;7.10;;;;;;;;;;10382872;28;20076;-58
2023/01/12 20:30:10;;;;;;;11.95;6.55;;;;;;;;;;10388152;28;20481;-49
2023/01/12 20:35:16;;;;;;;17.92;7.47;;;;;;;;;;10377668;28;20085;-58
2023/01/12 20:40:18;;;;;;;13.63;6.18;;;;;;;;;;10385181;28;20029;-56
2023/01/12 20:45:18;;;;;;;11.82;6.50;;;;;;;;;;10384019;28;20595;-56
2023/01/12 20:50:19;;;;;;;19.55;7.35;;;;;;;;;;10370996;28;20080;-57
2023/01/12 20:55:20;;;;;;;15.00;6.78;;;;;;;;;;10379043;28;20042;-55
2023/01/12 21:00:20;;;;;;;17.25;7.45;;;;;;;;;;10386971;28;20021;-48
2023/01/12 21:05:21;;;;;;;15.25;6.38;;;;;;;;;;10379449;28;20049;-48
2023/01/12 21:10:22;;;;;;;17.08;7.07;;;;;;;;;;10379877;28;20030;-58
2023/01/12 21:15:22;;;;;;;13.38;6.32;;;;;;;;;;10381259;28;20026;-56
2023/01/12 21:20:24;;;;;;;11.80;6.65;;;;;;;;;;10398614;28;20416;-54
2023/01/12 21:25:27;;;;;;;20.13;7.45;;;;;;;;;;10400191;28;20065;-56
2023/01/12 21:30:28;;;;;;;14.32;7.43;;;;;;;;;;10384862;28;20408;-55
2023/01/12 21:35:28;;;;;;;22.45;7.88;;;;;;;;;;10382541;28;20030;-52
2023/01/12 21:40:29;;;;;;;22.42;8.10;;;;;;;;;;10376135;28;20025;-45
2023/01/12 21:45:29;;;;;;;20.13;8.13;;;;;;;;;;10386601;28;20025;-46
2023/01/12 21:50:31;;;;;;;19.42;7.10;;;;;;;;;;10389342;28;20481;-43
2023/01/12 21:55:33;;;;;;;22.25;7.35;;;;;;;;;;10391118;28;20034;-43
2023/01/12 22:00:34;;;;;;;15.13;7.65;;;;;;;;;;10392466;28;20022;-47
2023/01/12 22:05:35;;;;;;;16.83;7.72;;;;;;;;;;10422075;28;20408;-52
2023/01/12 22:10:35;;;;;;;12.07;7.85;;;;;;;;;;10397181;28;20033;-54
2023/01/12 22:15:36;;;;;;;14.90;7.40;;;;;;;;;;10401846;28;20036;-45
2023/01/12 22:20:37;;;;;;;16.88;7.00;;;;;;;;;;10405290;28;20062;-50
2023/01/12 22:25:38;;;;;;;14.35;6.75;;;;;;;;;;10409200;28;20088;-45
2023/01/12 22:30:39;;;;;;;15.55;7.78;;;;;;;;;;10388453;28;20034;-50
2023/01/12 22:35:39;;;;;;;15.25;6.85;;;;;;;;;;10408193;28;20038;-48
2023/01/12 22:40:40;;;;;;;14.52;6.93;;;;;;;;;;10403641;28;20378;-44
2023/01/12 22:45:40;;;;;;;17.23;7.45;;;;;;;;;;10409968;28;20029;-44
2023/01/12 22:50:41;;;;;;;12.25;6.45;;;;;;;;;;10394744;28;20042;-45
2023/01/12 22:55:42;;;;;;;14.38;6.65;;;;;;;;;;10377530;28;20044;-44
2023/01/12 23:00:42;;;;;;;11.98;6.32;;;;;;;;;;10377884;28;20057;-47
2023/01/12 23:05:46;;;;;;;14.23;6.65;;;;;;;;;;10387911;28;20029;-56
2023/01/12 23:10:47;;;;;;;15.35;6.32;;;;;;;;;;10396412;28;20091;-60
2023/01/12 23:15:55;;;;;;;15.90;6.93;;;;;;;;;;10387010;28;20084;-53
2023/01/12 23:21:21;;;;;;;14.52;6.10;;;;;;;;;;10378508;28;20529;-45
2023/01/12 23:26:26;;;;;;;14.13;6.88;;;;;;;;;;10377992;28;20052;-44
2023/01/12 23:31:30;;;;;;;10.32;6.43;;;;;;;;;;10376226;28;20022;-43
2023/01/12 23:36:31;;;;;;;12.52;6.50;;;;;;;;;;10382684;28;20497;-43
2023/01/12 23:41:35;;;;;;;14.93;6.72;;;;;;;;;;10375958;28;20026;-45
2023/01/12 23:46:39;;;;;;;15.68;6.68;;;;;;;;;;10373772;28;20470;-53
2023/01/12 23:51:39;;;;;;;15.95;7.15;;;;;;;;;;10386199;28;20045;-55
2023/01/12 23:56:40;;;;;;;13.48;6.47;;;;;;;;;;10415771;28;20038;-48
